Time;durP1;ratioP1;P1;durP2;ratioP2;P2;SDS_P1;SDS_P2;PMS_P1;PMS_P2;Temp;Humidity;BMP_temperature;BMP_pressure;BME280_temperature;BME280_humidity;BME280_pressure;Samples;Min_cycle;Max_cycle;Signal;HPM_P1;HPM_P2
2022/03/18 00:04:54;;;;;;;13.90;8.00;;;22.50;62.10;;;;;;218463;1273;22711;-50
2022/03/18 00:09:58;;;;;;;13.50;7.40;;;22.50;62.10;;;;;;218661;1274;22583;-49
2022/03/18 00:15:02;;;;;;;14.20;7.50;;;22.40;61.60;;;;;;218631;1274;22618;-50
2022/03/18 00:20:08;;;;;;;14.10;8.00;;;22.40;61.60;;;;;;218881;1273;24297;-49
2022/03/18 00:25:14;;;;;;;13.50;7.20;;;22.40;61.30;;;;;;218865;1274;22553;-48
2022/03/18 00:30:18;;;;;;;10.90;7.10;;;22.40;60.80;;;;;;219938;1275;26594;-52
2022/03/18 00:35:24;;;;;;;17.10;8.90;;;22.30;60.30;;;;;;221547;1274;22544;-49
2022/03/18 00:40:27;;;;;;;17.40;8.20;;;22.40;60.50;;;;;;218810;1273;22564;-49
2022/03/18 00:45:31;;;;;;;10.70;6.50;;;22.60;59.80;;;;;;218633;1273;26524;-50
2022/03/18 00:55:58;;;;;;;14.30;7.20;;;23.30;58.40;;;;;;218563;1273;22586;-49
2022/03/18 01:01:01;;;;;;;13.80;7.70;;;23.50;57.80;;;;;;218837;1273;22645;-50
2022/03/18 01:06:05;;;;;;;14.10;7.60;;;23.60;57.50;;;;;;219790;1273;22605;-49
2022/03/18 01:11:09;;;;;;;14.20;7.80;;;23.70;57.40;;;;;;218800;1273;22535;-49
2022/03/18 01:16:12;;;;;;;11.80;6.90;;;23.70;57.00;;;;;;218750;1273;22567;-49
2022/03/18 01:21:16;;;;;;;17.00;7.60;;;23.90;57.00;;;;;;218711;1273;22571;-50
2022/03/18 01:26:20;;;;;;;20.00;8.40;;;23.90;56.80;;;;;;218685;1273;22733;-51
2022/03/18 01:31:24;;;;;;;13.90;7.40;;;23.90;56.80;;;;;;219109;1273;24032;-50
2022/03/18 01:36:28;;;;;;;13.50;7.00;;;24.00;57.10;;;;;;220020;1274;22630;-50
2022/03/18 01:41:32;;;;;;;15.70;8.50;;;24.00;56.40;;;;;;220269;1273;22560;-49
2022/03/18 01:46:39;;;;;;;10.80;6.70;;;24.10;56.50;;;;;;218616;1273;25603;-52
2022/03/18 01:51:43;;;;;;;9.70;6.30;;;24.10;56.40;;;;;;220593;1273;22554;-51
2022/03/18 01:56:48;;;;;;;13.40;7.70;;;24.20;55.80;;;;;;219645;1273;25378;-52
2022/03/18 02:01:52;;;;;;;13.30;7.10;;;24.20;56.10;;;;;;220403;1273;23211;-50
2022/03/18 02:06:56;;;;;;;15.80;8.20;;;24.20;56.00;;;;;;218700;1273;22565;-51
2022/03/18 02:12:02;;;;;;;17.70;8.80;;;24.20;55.60;;;;;;222137;1273;22541;-51
2022/03/18 02:17:08;;;;;;;12.80;7.60;;;24.20;55.50;;;;;;218915;1273;24897;-49
2022/03/18 02:22:16;;;;;;;10.30;6.90;;;24.20;55.50;;;;;;219434;1273;25325;-50
2022/03/18 02:27:20;;;;;;;9.50;6.60;;;24.00;56.30;;;;;;218510;1273;24359;-48
2022/03/18 02:32:24;;;;;;;11.40;6.80;;;23.90;55.80;;;;;;218733;1273;23108;-53
2022/03/18 02:37:28;;;;;;;12.70;7.10;;;23.80;55.90;;;;;;218909;1273;24037;-51
2022/03/18 02:42:32;;;;;;;12.70;7.50;;;23.60;56.30;;;;;;220354;1274;25529;-53
2022/03/18 02:47:35;;;;;;;13.10;7.50;;;23.60;56.00;;;;;;218540;1273;22645;-52
2022/03/18 02:52:40;;;;;;;12.30;7.20;;;23.50;55.90;;;;;;218638;1273;25454;-50
2022/03/18 02:57:44;;;;;;;10.30;6.90;;;23.40;56.10;;;;;;218594;1274;24315;-51
2022/03/18 03:02:47;;;;;;;10.50;6.50;;;23.30;56.00;;;;;;226794;1272;22637;-50
2022/03/18 03:08:00;;;;;;;10.00;6.60;;;23.20;56.20;;;;;;218753;1273;22557;-50
2022/03/18 03:13:10;;;;;;;10.90;6.40;;;23.10;56.00;;;;;;219120;1274;25569;-52
2022/03/18 03:18:14;;;;;;;12.40;7.00;;;23.00;56.10;;;;;;220227;1274;22750;-50
2022/03/18 03:23:18;;;;;;;10.40;6.50;;;23.00;56.30;;;;;;218650;1273;25618;-50
2022/03/18 03:28:22;;;;;;;13.60;7.60;;;22.90;56.30;;;;;;218797;1273;25207;-52
2022/03/18 03:33:26;;;;;;;12.30;6.80;;;22.80;56.60;;;;;;221014;1274;25580;-49
2022/03/18 03:38:30;;;;;;;11.80;6.40;;;22.80;56.80;;;;;;219125;1273;26566;-52
2022/03/18 03:43:34;;;;;;;10.40;6.40;;;22.70;56.30;;;;;;218762;1272;25254;-50
2022/03/18 03:48:38;;;;;;;16.20;7.80;;;22.70;56.10;;;;;;220394;1273;22554;-52
2022/03/18 03:53:42;;;;;;;12.50;7.00;;;22.60;56.40;;;;;;218774;1273;22691;-50
2022/03/18 03:58:47;;;;;;;16.90;7.80;;;22.60;56.30;;;;;;219061;1273;22529;-50
2022/03/18 04:03:52;;;;;;;18.10;7.90;;;22.60;56.30;;;;;;218600;1273;22535;-52
2022/03/18 04:08:59;;;;;;;13.80;7.50;;;22.50;56.10;;;;;;221498;1272;24220;-50
2022/03/18 04:14:04;;;;;;;11.80;6.60;;;22.50;56.00;;;;;;218874;1273;22555;-49
2022/03/18 04:19:08;;;;;;;10.00;5.80;;;22.50;56.10;;;;;;218607;1274;22567;-50
2022/03/18 04:24:16;;;;;;;11.20;5.90;;;22.60;55.90;;;;;;221627;1273;25715;-52
2022/03/18 04:29:20;;;;;;;8.40;5.80;;;23.10;54.80;;;;;;222175;1273;25194;-50
2022/03/18 04:34:24;;;;;;;9.50;6.10;;;23.40;54.00;;;;;;219082;1273;24323;-50
2022/03/18 04:39:28;;;;;;;11.80;6.10;;;23.60;53.40;;;;;;219381;1273;22619;-49
2022/03/18 04:44:42;;;;;;;9.50;6.00;;;23.70;53.30;;;;;;221108;1274;25137;-52
2022/03/18 04:49:49;;;;;;;10.70;5.90;;;23.70;53.10;;;;;;218806;1273;25506;-50
2022/03/18 04:55:06;;;;;;;10.40;5.30;;;23.80;53.00;;;;;;218762;1274;24550;-48
2022/03/18 05:00:20;;;;;;;10.40;5.40;;;23.90;52.90;;;;;;221139;1273;22532;-49
2022/03/18 05:05:47;;;;;;;8.20;5.30;;;23.90;52.60;;;;;;220996;1273;22570;-50
2022/03/18 05:11:04;;;;;;;10.40;6.20;;;24.00;52.60;;;;;;221062;1272;25503;-50
2022/03/18 05:16:15;;;;;;;10.30;5.10;;;24.10;52.80;;;;;;218929;1273;22782;-51
2022/03/18 05:21:24;;;;;;;9.40;5.50;;;24.10;52.60;;;;;;219597;1273;25394;-52
2022/03/18 05:26:43;;;;;;;9.10;5.70;;;24.10;52.50;;;;;;219754;1273;22697;-50
2022/03/18 05:31:49;;;;;;;14.10;6.50;;;24.10;51.90;;;;;;221343;1272;23024;-53
2022/03/18 05:36:55;;;;;;;12.60;6.40;;;24.10;51.80;;;;;;218866;1273;22550;-49
2022/03/18 05:41:59;;;;;;;10.60;5.70;;;24.10;51.80;;;;;;219119;1273;25454;-49
2022/03/18 05:47:08;;;;;;;12.30;6.00;;;24.10;51.60;;;;;;220152;1274;24273;-51
2022/03/18 05:52:12;;;;;;;9.50;5.70;;;24.20;51.50;;;;;;222583;1273;22582;-51
2022/03/18 05:57:17;;;;;;;16.50;6.80;;;24.30;51.30;;;;;;219162;1273;22722;-50
2022/03/18 06:02:26;;;;;;;9.60;5.40;;;24.20;51.40;;;;;;219424;1273;24521;-51
2022/03/18 06:07:33;;;;;;;10.30;5.40;;;24.20;51.50;;;;;;219709;1273;22622;-49
2022/03/18 06:12:53;;;;;;;12.20;6.20;;;24.30;51.00;;;;;;220737;1273;22540;-50
2022/03/18 06:18:12;;;;;;;9.20;5.20;;;24.30;50.90;;;;;;218921;1273;25592;-50
2022/03/18 06:23:24;;;;;;;12.10;6.70;;;24.30;50.90;;;;;;219287;1274;22981;-52
2022/03/18 06:28:37;;;;;;;9.50;5.90;;;24.20;51.00;;;;;;221362;1273;25364;-51
2022/03/18 06:33:49;;;;;;;15.30;7.10;;;24.10;50.50;;;;;;218693;1274;25184;-50
2022/03/18 06:38:56;;;;;;;13.20;6.50;;;23.90;51.20;;;;;;218802;1273;24445;-50
2022/03/18 06:44:03;;;;;;;13.50;6.20;;;23.80;51.30;;;;;;220001;1274;22703;-51
2022/03/18 06:49:19;;;;;;;14.20;6.40;;;23.70;51.50;;;;;;221859;1273;23335;-52
2022/03/18 06:54:26;;;;;;;9.40;6.00;;;23.50;52.00;;;;;;218782;1273;25393;-50
2022/03/18 06:59:33;;;;;;;10.80;5.50;;;23.50;52.50;;;;;;220765;1273;24477;-50
2022/03/18 07:04:38;;;;;;;17.60;7.40;;;23.40;52.80;;;;;;222572;1273;22708;-53
2022/03/18 07:09:42;;;;;;;13.30;6.80;;;23.30;53.60;;;;;;219736;1273;22645;-50
2022/03/18 07:14:45;;;;;;;13.70;5.90;;;23.30;53.70;;;;;;218787;1273;22578;-49
2022/03/18 07:19:52;;;;;;;14.60;6.30;;;23.30;53.40;;;;;;218731;1273;25590;-53
2022/03/18 07:24:56;;;;;;;15.30;6.20;;;23.20;53.50;;;;;;218585;1273;22678;-53
2022/03/18 07:30:04;;;;;;;16.00;6.70;;;23.20;53.90;;;;;;218456;1275;25263;-51
2022/03/18 07:35:10;;;;;;;20.50;6.20;;;23.10;53.80;;;;;;220974;1273;24416;-52
2022/03/18 07:40:18;;;;;;;16.00;6.20;;;23.00;53.40;;;;;;219268;1273;24261;-52
2022/03/18 07:45:29;;;;;;;13.30;7.20;;;23.00;53.60;;;;;;225351;1272;22382;-51
2022/03/18 07:50:36;;;;;;;16.60;6.60;;;22.90;53.20;;;;;;221499;1273;24280;-50
2022/03/18 07:55:40;;;;;;;11.80;6.10;;;22.90;53.20;;;;;;218667;1273;24431;-54
2022/03/18 08:00:44;;;;;;;16.60;6.70;;;22.90;53.00;;;;;;224302;1273;25322;-52
2022/03/18 08:05:48;;;;;;;14.80;7.00;;;22.90;52.40;;;;;;222942;1272;24333;-52
2022/03/18 08:10:55;;;;;;;14.90;6.80;;;22.90;52.00;;;;;;219898;1273;26507;-49
2022/03/18 08:16:02;;;;;;;13.70;6.60;;;22.80;51.70;;;;;;219758;1273;22782;-52
2022/03/18 08:21:05;;;;;;;9.50;6.10;;;22.80;51.60;;;;;;218869;1273;22542;-51
2022/03/18 08:26:09;;;;;;;11.40;5.90;;;22.70;51.40;;;;;;218820;1273;22987;-51
2022/03/18 08:31:16;;;;;;;13.30;6.30;;;22.70;51.40;;;;;;218985;1273;22918;-52
2022/03/18 08:36:20;;;;;;;11.10;6.20;;;22.60;51.30;;;;;;220247;1273;22875;-55
2022/03/18 08:41:26;;;;;;;13.50;5.90;;;22.70;51.50;;;;;;218914;1273;22552;-51
2022/03/18 08:46:30;;;;;;;15.40;7.10;;;22.60;51.00;;;;;;219159;1273;25682;-52
2022/03/18 08:51:33;;;;;;;11.70;6.30;;;22.70;51.10;;;;;;218801;1273;25238;-53
2022/03/18 08:56:49;;;;;;;13.20;6.70;;;22.70;51.10;;;;;;221656;1273;25237;-54
2022/03/18 09:01:54;;;;;;;22.60;8.10;;;22.70;50.80;;;;;;218906;1273;22531;-54
2022/03/18 09:06:59;;;;;;;14.10;6.60;;;22.70;50.70;;;;;;219293;1273;24287;-53
2022/03/18 09:12:10;;;;;;;12.20;6.70;;;22.70;50.50;;;;;;222409;1273;22980;-52
2022/03/18 09:17:15;;;;;;;21.60;8.60;;;22.80;50.30;;;;;;219020;1272;24087;-53
2022/03/18 09:22:19;;;;;;;24.50;8.40;;;22.80;50.50;;;;;;223159;1272;26600;-54
2022/03/18 09:27:23;;;;;;;24.30;9.30;;;22.90;49.50;;;;;;218834;1273;22557;-51
2022/03/18 09:32:30;;;;;;;14.90;7.80;;;22.90;49.70;;;;;;220198;1273;24975;-54
2022/03/18 09:37:58;;;;;;;13.10;7.90;;;22.90;49.70;;;;;;218733;1273;24320;-49
2022/03/18 09:43:14;;;;;;;14.20;8.30;;;22.90;49.50;;;;;;218899;1273;22534;-51
2022/03/18 09:48:18;;;;;;;12.20;7.70;;;23.00;49.10;;;;;;218769;1273;22576;-50
2022/03/18 09:53:22;;;;;;;12.80;7.40;;;23.00;49.10;;;;;;222818;1276;25416;-50
2022/03/18 09:58:38;;;;;;;21.70;11.30;;;23.00;49.10;;;;;;219202;1273;25351;-53
2022/03/18 10:04:04;;;;;;;20.60;9.70;;;23.00;48.80;;;;;;218791;1273;24158;-52
2022/03/18 10:09:26;;;;;;;16.50;8.90;;;23.10;48.60;;;;;;219169;1273;22558;-53
2022/03/18 10:15:07;;;;;;;17.80;9.20;;;23.10;48.70;;;;;;218808;1273;22577;-50
2022/03/18 10:20:50;;;;;;;12.40;7.30;;;23.10;48.30;;;;;;219197;1274;25675;-52
2022/03/18 10:26:25;;;;;;;23.50;10.00;;;23.20;48.30;;;;;;220932;1274;24967;-52
2022/03/18 10:31:45;;;;;;;11.00;6.60;;;23.20;48.30;;;;;;219078;1273;25526;-53
2022/03/18 10:37:04;;;;;;;17.60;7.70;;;23.20;48.10;;;;;;218972;1273;22697;-52
2022/03/18 10:42:10;;;;;;;23.80;9.50;;;23.20;48.10;;;;;;222868;1273;24204;-54
2022/03/18 10:47:37;;;;;;;16.90;7.70;;;23.20;47.90;;;;;;224210;1271;22597;-52
2022/03/18 10:53:01;;;;;;;14.40;7.80;;;23.30;47.70;;;;;;220915;1273;24314;-53
2022/03/18 10:58:12;;;;;;;14.00;7.20;;;23.30;47.10;;;;;;220661;1276;22772;-52
2022/03/18 11:03:16;;;;;;;;;;;23.30;47.50;;;;;;218826;1273;26715;-52
2022/03/18 11:08:22;;;;;;;20.00;8.20;;;23.30;48.00;;;;;;218724;1273;22680;-52
2022/03/18 11:13:29;;;;;;;12.30;6.90;;;23.40;47.90;;;;;;219456;1273;22548;-51
2022/03/18 11:18:36;;;;;;;14.60;7.30;;;23.40;47.60;;;;;;219596;1273;25267;-56
2022/03/18 11:23:42;;;;;;;15.90;8.30;;;23.50;47.80;;;;;;219147;1272;22740;-55
2022/03/18 11:28:46;;;;;;;13.60;7.40;;;23.50;47.60;;;;;;218422;1273;23366;-58
2022/03/18 11:34:09;;;;;;;11.50;6.80;;;23.60;47.80;;;;;;221599;1273;25636;-57
2022/03/18 11:39:22;;;;;;;10.30;6.80;;;23.60;48.00;;;;;;219046;1275;24336;-55
2022/03/18 11:45:01;;;;;;;12.80;6.50;;;23.50;47.80;;;;;;219589;1273;22723;-60
2022/03/18 11:50:37;;;;;;;11.40;7.50;;;23.60;47.90;;;;;;218760;1273;22493;-59
2022/03/18 11:55:45;;;;;;;10.70;6.70;;;23.60;47.80;;;;;;219754;1273;22537;-58
2022/03/18 12:01:04;;;;;;;9.30;6.90;;;23.60;47.80;;;;;;218558;1273;24306;-59
2022/03/18 12:06:10;;;;;;;12.70;6.90;;;23.60;47.60;;;;;;218842;1273;22553;-59
2022/03/18 12:11:39;;;;;;;12.90;7.20;;;23.60;47.70;;;;;;221008;1273;25496;-58
2022/03/18 12:16:45;;;;;;;13.30;7.20;;;23.70;48.20;;;;;;218631;1273;25580;-60
2022/03/18 12:22:09;;;;;;;12.00;7.00;;;23.70;47.50;;;;;;227576;1273;22379;-59
2022/03/18 12:27:18;;;;;;;12.90;6.70;;;23.70;47.60;;;;;;220202;1272;26836;-65
2022/03/18 12:32:23;;;;;;;13.10;7.20;;;23.70;47.00;;;;;;218901;1273;25534;-63
2022/03/18 12:37:45;;;;;;;10.40;7.00;;;23.70;46.90;;;;;;223577;1274;23135;-63
2022/03/18 12:43:24;;;;;;;10.50;7.00;;;23.70;46.60;;;;;;220141;1273;23096;-55
2022/03/18 12:48:28;;;;;;;12.60;7.40;;;23.80;46.60;;;;;;219791;1273;25701;-57
2022/03/18 12:53:38;;;;;;;17.20;8.80;;;23.80;46.80;;;;;;222769;1272;24407;-57
2022/03/18 12:59:05;;;;;;;11.80;6.60;;;23.80;46.60;;;;;;219348;1273;22643;-62
2022/03/18 13:04:43;;;;;;;11.80;7.10;;;23.70;46.60;;;;;;223199;1273;22530;-62
2022/03/18 13:10:08;;;;;;;9.00;5.90;;;23.80;46.60;;;;;;227557;1272;22404;-58
2022/03/18 13:15:20;;;;;;;11.40;7.20;;;23.80;46.30;;;;;;223300;1273;22544;-64
2022/03/18 13:20:42;;;;;;;9.90;6.70;;;23.90;46.10;;;;;;218810;1273;22547;-64
2022/03/18 13:25:50;;;;;;;14.80;7.30;;;23.90;46.10;;;;;;218865;1271;22732;-51
2022/03/18 13:36:38;;;;;;;10.40;6.10;;;23.90;46.00;;;;;;218705;1273;22563;-57
2022/03/18 13:41:59;;;;;;;9.70;6.40;;;23.90;46.10;;;;;;227298;1272;25658;-55
2022/03/18 13:47:06;;;;;;;13.70;7.20;;;23.90;46.10;;;;;;221180;1273;25404;-54
2022/03/18 13:52:13;;;;;;;10.10;6.90;;;23.90;45.90;;;;;;219297;1272;26578;-54
2022/03/18 13:57:27;;;;;;;11.50;6.50;;;23.90;45.90;;;;;;218624;1273;22718;-59
2022/03/18 14:02:32;;;;;;;12.90;6.60;;;23.90;45.80;;;;;;220269;1275;25548;-60
2022/03/18 14:07:47;;;;;;;12.70;7.30;;;23.90;45.80;;;;;;223857;1272;24313;-60
2022/03/18 14:13:04;;;;;;;12.50;7.50;;;23.70;45.50;;;;;;218448;1273;25422;-60
2022/03/18 14:18:12;;;;;;;15.20;7.90;;;23.80;45.90;;;;;;225501;1273;22924;-61
2022/03/18 14:23:23;;;;;;;10.40;6.90;;;23.80;45.70;;;;;;218838;1274;26807;-60
2022/03/18 14:28:29;;;;;;;9.20;6.20;;;23.70;45.30;;;;;;220444;1273;23493;-61
2022/03/18 14:33:36;;;;;;;13.50;7.40;;;23.70;45.30;;;;;;225561;1274;25583;-60
2022/03/18 14:38:43;;;;;;;14.10;7.20;;;23.70;45.10;;;;;;225019;1274;23164;-59
2022/03/18 14:43:47;;;;;;;13.30;6.90;;;23.70;45.00;;;;;;220427;1273;24204;-60
2022/03/18 14:48:54;;;;;;;13.10;6.70;;;23.60;45.10;;;;;;219313;1273;22556;-61
2022/03/18 14:54:01;;;;;;;11.90;6.70;;;23.60;44.50;;;;;;220293;1274;24245;-60
2022/03/18 14:59:05;;;;;;;14.80;6.90;;;23.60;44.70;;;;;;224239;1273;28160;-60
2022/03/18 15:04:09;;;;;;;13.10;6.50;;;23.50;44.60;;;;;;220227;1273;22391;-60
2022/03/18 15:09:12;;;;;;;13.60;6.60;;;23.50;44.60;;;;;;224544;1274;25470;-60
2022/03/18 15:14:17;;;;;;;12.30;6.30;;;23.50;44.50;;;;;;219090;1273;25520;-62
2022/03/18 15:19:21;;;;;;;12.10;6.40;;;23.40;44.60;;;;;;219176;1274;25339;-60
2022/03/18 15:24:24;;;;;;;12.00;6.30;;;23.40;44.30;;;;;;218723;1273;25467;-59
2022/03/18 15:29:28;;;;;;;10.10;6.20;;;23.30;43.70;;;;;;221121;1274;23960;-59
2022/03/18 15:34:33;;;;;;;13.30;6.80;;;23.30;44.30;;;;;;219139;1277;25672;-60
2022/03/18 15:39:39;;;;;;;11.80;6.40;;;23.20;44.30;;;;;;220091;1274;24366;-59
2022/03/18 15:44:57;;;;;;;;;;;23.20;44.60;;;;;;221349;1277;22678;-60
2022/03/18 15:50:24;;;;;;;14.70;7.40;;;23.20;44.60;;;;;;219103;1274;22606;-60
2022/03/18 15:55:28;;;;;;;17.30;7.30;;;23.10;45.00;;;;;;221133;1273;22636;-59
2022/03/18 16:00:41;;;;;;;16.50;6.70;;;23.10;44.60;;;;;;218973;1274;27051;-60
2022/03/18 16:05:53;;;;;;;11.80;6.30;;;23.00;44.20;;;;;;218953;1274;22543;-59
2022/03/18 16:11:06;;;;;;;11.80;6.50;;;23.00;44.10;;;;;;219032;1273;22615;-59
2022/03/18 16:16:36;;;;;;;9.40;6.00;;;23.00;44.00;;;;;;223257;1275;24107;-59
2022/03/18 16:21:55;;;;;;;14.10;7.20;;;23.00;43.80;;;;;;219032;1274;22564;-59
2022/03/18 16:27:05;;;;;;;11.70;6.50;;;22.90;43.50;;;;;;220648;1274;24166;-60
2022/03/18 16:32:09;;;;;;;12.40;6.40;;;22.80;43.30;;;;;;219683;1274;26583;-60
2022/03/18 16:37:13;;;;;;;8.70;5.40;;;22.80;43.80;;;;;;218868;1273;22566;-60
2022/03/18 16:42:17;;;;;;;13.10;6.60;;;22.80;43.30;;;;;;219568;1274;22558;-60
2022/03/18 16:52:50;;;;;;;10.80;6.80;;;22.70;42.80;;;;;;218766;1273;22557;-61
2022/03/18 16:57:56;;;;;;;14.70;7.30;;;22.70;42.70;;;;;;219147;1274;24311;-60
2022/03/18 17:03:07;;;;;;;11.50;7.20;;;22.60;42.70;;;;;;220259;1274;22191;-61
2022/03/18 17:08:19;;;;;;;14.70;8.20;;;22.60;42.50;;;;;;220860;1274;22556;-59
2022/03/18 17:13:29;;;;;;;13.40;7.50;;;22.70;42.50;;;;;;219608;1273;22559;-59
2022/03/18 17:18:54;;;;;;;17.00;8.60;;;22.90;41.50;;;;;;219132;1272;25271;-57
2022/03/18 17:24:13;;;;;;;19.20;8.70;;;23.20;40.90;;;;;;218880;1273;22642;-60
2022/03/18 17:29:20;;;;;;;23.20;10.20;;;23.40;40.50;;;;;;220522;1274;25911;-62
2022/03/18 17:34:29;;;;;;;30.00;11.10;;;23.50;40.50;;;;;;219990;1274;25387;-61
2022/03/18 17:39:40;;;;;;;19.10;9.10;;;23.60;39.90;;;;;;219477;1274;26997;-59
2022/03/18 17:44:45;;;;;;;19.40;9.50;;;23.70;39.70;;;;;;221144;1274;24244;-60
2022/03/18 17:49:56;;;;;;;23.00;10.20;;;23.70;39.50;;;;;;220330;1274;22188;-60
2022/03/18 17:55:41;;;;;;;22.40;10.30;;;23.80;39.30;;;;;;219347;1273;25504;-59
2022/03/18 18:01:06;;;;;;;27.00;12.40;;;23.80;39.20;;;;;;220137;1274;25712;-59
2022/03/18 18:06:46;;;;;;;28.20;12.70;;;23.80;39.10;;;;;;221539;1273;25605;-58
2022/03/18 18:12:33;;;;;;;28.70;13.10;;;23.80;38.80;;;;;;219283;1273;24247;-59
2022/03/18 18:17:40;;;;;;;24.20;12.30;;;23.80;38.60;;;;;;219691;1273;24274;-60
2022/03/18 18:22:45;;;;;;;28.50;13.50;;;23.90;38.60;;;;;;219061;1273;22813;-58
2022/03/18 18:27:52;;;;;;;24.10;12.00;;;23.90;38.40;;;;;;220019;1273;24726;-60
2022/03/18 18:32:59;;;;;;;29.70;13.40;;;23.90;38.30;;;;;;219282;1275;22629;-60
2022/03/18 18:38:08;;;;;;;24.20;12.60;;;23.90;38.50;;;;;;219361;1273;22545;-60
2022/03/18 18:43:38;;;;;;;26.50;13.20;;;24.00;38.00;;;;;;222343;1274;25453;-59
2022/03/18 18:49:02;;;;;;;38.90;14.70;;;24.00;37.90;;;;;;219272;1273;22582;-59
2022/03/18 18:54:13;;;;;;;29.10;13.30;;;24.10;37.80;;;;;;219394;1273;22583;-60
2022/03/18 18:59:22;;;;;;;31.40;14.20;;;24.10;37.60;;;;;;222618;1274;22584;-61
2022/03/18 19:04:43;;;;;;;31.00;13.70;;;24.10;37.50;;;;;;219692;1273;22537;-59
2022/03/18 19:10:05;;;;;;;33.70;15.30;;;24.10;37.40;;;;;;222635;1273;23472;-58
2022/03/18 19:15:11;;;;;;;35.90;15.40;;;24.10;36.90;;;;;;220777;1273;23969;-60
2022/03/18 19:20:34;;;;;;;36.20;15.50;;;24.20;37.10;;;;;;220793;1275;22790;-59
2022/03/18 19:25:40;;;;;;;32.60;15.00;;;24.30;37.40;;;;;;220885;1274;25465;-59
2022/03/18 19:31:02;;;;;;;27.50;14.50;;;24.30;36.80;;;;;;219380;1273;22714;-58
2022/03/18 19:36:06;;;;;;;36.00;15.40;;;24.40;36.80;;;;;;222017;1273;22670;-57
2022/03/18 19:41:24;;;;;;;49.20;22.40;;;24.50;37.30;;;;;;226918;1273;22998;-58
2022/03/18 19:46:41;;;;;;;43.20;22.30;;;24.70;37.50;;;;;;226427;1273;22706;-58
2022/03/18 19:51:45;;;;;;;42.60;23.00;;;24.60;37.60;;;;;;225182;1273;22578;-58
2022/03/18 20:02:26;;;;;;;43.30;20.90;;;24.40;37.90;;;;;;219334;1274;25475;-57
2022/03/18 20:07:47;;;;;;;38.40;19.90;;;24.30;38.90;;;;;;221080;1271;24346;-57
2022/03/18 20:12:59;;;;;;;32.10;17.60;;;24.20;39.00;;;;;;227407;1272;25391;-55
2022/03/18 20:18:06;;;;;;;33.80;17.70;;;24.10;38.50;;;;;;220133;1273;25380;-57
2022/03/18 20:23:10;;;;;;;36.10;18.50;;;23.90;39.30;;;;;;219719;1273;22586;-56
2022/03/18 20:28:15;;;;;;;30.60;17.60;;;23.90;39.00;;;;;;223751;1273;25643;-54
2022/03/18 20:33:38;;;;;;;31.70;17.70;;;23.80;39.00;;;;;;220558;1273;22582;-56
2022/03/18 20:38:49;;;;;;;34.90;18.00;;;23.70;39.30;;;;;;224729;1273;22595;-54
2022/03/18 20:44:13;;;;;;;32.80;17.30;;;23.60;39.10;;;;;;220301;1273;23200;-54
2022/03/18 20:49:32;;;;;;;32.40;16.80;;;23.50;39.50;;;;;;220380;1273;22786;-53
2022/03/18 20:55:06;;;;;;;35.60;17.20;;;23.40;39.90;;;;;;220040;1273;22627;-55
2022/03/18 21:00:53;;;;;;;35.40;17.30;;;23.20;39.70;;;;;;221207;1273;23255;-55
2022/03/18 21:06:22;;;;;;;35.60;15.80;;;23.20;39.70;;;;;;223674;1273;22560;-56
2022/03/18 21:11:51;;;;;;;33.20;16.60;;;23.10;40.00;;;;;;219731;1273;25765;-52
2022/03/18 21:17:42;;;;;;;38.60;16.90;;;23.10;40.50;;;;;;220663;1273;24221;-51
2022/03/18 21:23:09;;;;;;;27.80;15.30;;;23.00;40.60;;;;;;221728;1272;24243;-52
2022/03/18 21:34:23;;;;;;;26.40;14.50;;;22.90;41.40;;;;;;222536;1273;22905;-54
2022/03/18 21:39:59;;;;;;;32.10;16.60;;;22.80;41.80;;;;;;220011;1273;24778;-55
2022/03/18 21:45:16;;;;;;;24.20;14.50;;;22.80;42.10;;;;;;219899;1273;22636;-53
2022/03/18 21:50:44;;;;;;;;;;;;;;;;;;;;;
2022/03/18 21:56:04;;;;;;;24.30;14.50;;;22.70;42.60;;;;;;219553;1273;24234;-55
2022/03/18 22:01:20;;;;;;;26.60;14.70;;;22.60;42.80;;;;;;219614;1273;25491;-51
2022/03/18 22:06:41;;;;;;;23.30;13.90;;;22.60;43.00;;;;;;219798;1273;25322;-55
2022/03/18 22:11:56;;;;;;;28.70;15.30;;;22.60;43.20;;;;;;220358;1273;22563;-53
2022/03/18 22:17:09;;;;;;;29.30;14.30;;;22.50;43.40;;;;;;219645;1273;23371;-53
2022/03/18 22:22:35;;;;;;;21.30;13.10;;;22.60;43.40;;;;;;227536;1273;23215;-52
2022/03/18 22:27:53;;;;;;;22.70;12.40;;;22.90;43.30;;;;;;221045;1273;22641;-54
2022/03/18 22:33:05;;;;;;;24.40;14.60;;;23.30;42.60;;;;;;219731;1273;22536;-53
2022/03/18 22:38:24;;;;;;;29.70;14.30;;;23.60;42.10;;;;;;219867;1273;24075;-51
2022/03/18 22:43:33;;;;;;;27.40;14.40;;;23.80;42.20;;;;;;219798;1273;25384;-50
2022/03/18 22:48:39;;;;;;;23.70;12.40;;;23.90;41.80;;;;;;219333;1273;22494;-51
2022/03/18 22:53:48;;;;;;;29.30;14.20;;;24.00;41.30;;;;;;223119;1273;24082;-53
2022/03/18 22:58:57;;;;;;;23.20;13.50;;;24.10;41.40;;;;;;224278;1273;22552;-52
2022/03/18 23:04:06;;;;;;;27.00;15.00;;;24.20;40.80;;;;;;219806;1273;22612;-52
2022/03/18 23:09:16;;;;;;;27.20;14.20;;;24.20;40.40;;;;;;220203;1273;26155;-51
2022/03/18 23:14:31;;;;;;;26.20;13.90;;;24.30;39.50;;;;;;221484;1274;24226;-51
2022/03/18 23:19:48;;;;;;;23.50;14.10;;;24.30;40.00;;;;;;219398;1274;22771;-52
2022/03/18 23:25:00;;;;;;;23.20;13.50;;;24.30;40.00;;;;;;220715;1273;24290;-51
2022/03/18 23:30:05;;;;;;;24.80;14.20;;;24.50;40.20;;;;;;220371;1273;22554;-52
2022/03/18 23:35:09;;;;;;;25.20;13.00;;;24.50;40.60;;;;;;222376;1273;22561;-52
2022/03/18 23:40:13;;;;;;;26.50;14.00;;;24.50;41.00;;;;;;219695;1273;26827;-51
2022/03/18 23:45:16;;;;;;;30.50;13.00;;;24.40;41.60;;;;;;219440;1273;23663;-51
2022/03/18 23:50:20;;;;;;;25.90;14.00;;;24.30;42.00;;;;;;221446;1272;22555;-54
2022/03/18 23:55:31;;;;;;;26.00;14.00;;;24.10;41.80;;;;;;221928;1273;25578;-52
